If you wish to contribute or participate in the discussions about articles you are invited to join SKYbrary as a registered user

 Actions

Kuressaare

From SKYbrary Wiki

EEKE
Airport
ICAO: EEKE
Summary
Name Kuressaare
Region Europe
Territory Estonia EE.gif
Location Kuressaare
Serving
Coordinates 58° 13' 47.48" N, 22° 30' 35.55" E
Runways
Designator Length Width Surface ROPS
5/23 799 m2,621.391 ft
30 m98.425 ft
ASP /
17/35 1518 m4,980.315 ft
30 m98.425 ft
ASP /


METAR
Observation EEKE 201650Z AUTO 19009KT 9999NDV NSC 23/16 Q1008
Station Kuressaare
Date/Time 20 June 2019 16:50:00
Wind direction 190°
Wind speed 09 kts
Lowest cloud amount nil significant cloud
Temperature 23°C
Dew point 16°C
Humidity 64%
QNH 1008 hPa
Weather condition n/a

Kuressaare Airport (IATA: URE, ICAO: EEKE) is an airport in Estonia. The airport is situated 3 km1.62 nm
3,000 m
9,842.52 ft
from the town of Kuressaare on Saaremaa island.